sensor_id;sensor_type;location;lat;lon;timestamp;P1;durP1;ratioP1;P2;durP2;ratioP2
77026;SDS011;65956;52.986;17.490;2023-12-07T05:56:35;49.60;;;17.40;;
77026;SDS011;65956;52.986;17.490;2023-12-07T05:59:01;62.90;;;22.10;;
77026;SDS011;65956;52.986;17.490;2023-12-07T06:01:27;68.30;;;23.70;;
77026;SDS011;65956;52.986;17.490;2023-12-07T06:03:53;63.00;;;23.40;;
77026;SDS011;65956;52.986;17.490;2023-12-07T06:06:19;67.00;;;24.10;;
77026;SDS011;65956;52.986;17.490;2023-12-07T06:08:47;63.30;;;22.90;;
77026;SDS011;65956;52.986;17.490;2023-12-07T06:11:13;62.50;;;21.80;;
77026;SDS011;65956;52.986;17.490;2023-12-07T06:13:39;59.00;;;21.20;;
77026;SDS011;65956;52.986;17.490;2023-12-07T06:16:05;64.00;;;23.60;;
77026;SDS011;65956;52.986;17.490;2023-12-07T06:18:31;59.60;;;21.70;;
77026;SDS011;65956;52.986;17.490;2023-12-07T06:20:57;65.80;;;23.40;;
77026;SDS011;65956;52.986;17.490;2023-12-07T06:23:23;64.70;;;23.70;;
77026;SDS011;65956;52.986;17.490;2023-12-07T06:25:49;65.40;;;23.00;;
77026;SDS011;65956;52.986;17.490;2023-12-07T06:28:15;64.30;;;24.20;;
77026;SDS011;65956;52.986;17.490;2023-12-07T06:30:41;62.80;;;22.90;;
77026;SDS011;65956;52.986;17.490;2023-12-07T06:33:07;62.80;;;24.60;;
77026;SDS011;65956;52.986;17.490;2023-12-07T06:35:33;63.20;;;23.30;;
77026;SDS011;65956;52.986;17.490;2023-12-07T06:37:59;56.80;;;21.60;;
77026;SDS011;65956;52.986;17.490;2023-12-07T06:40:25;59.50;;;20.10;;
77026;SDS011;65956;52.986;17.490;2023-12-07T06:42:51;64.90;;;22.90;;
77026;SDS011;65956;52.986;17.490;2023-12-07T06:45:17;59.00;;;20.80;;
77026;SDS011;65956;52.986;17.490;2023-12-07T06:47:44;60.60;;;22.60;;
77026;SDS011;65956;52.986;17.490;2023-12-07T06:50:10;55.60;;;20.40;;
77026;SDS011;65956;52.986;17.490;2023-12-07T06:52:36;58.00;;;21.20;;
77026;SDS011;65956;52.986;17.490;2023-12-07T06:55:03;54.80;;;21.00;;
77026;SDS011;65956;52.986;17.490;2023-12-07T06:57:29;64.00;;;23.00;;
77026;SDS011;65956;52.986;17.490;2023-12-07T06:59:55;55.10;;;21.00;;
77026;SDS011;65956;52.986;17.490;2023-12-07T07:02:22;48.40;;;17.30;;
77026;SDS011;65956;52.986;17.490;2023-12-07T07:04:49;59.80;;;21.50;;
77026;SDS011;65956;52.986;17.490;2023-12-07T07:07:15;63.80;;;22.50;;
77026;SDS011;65956;52.986;17.490;2023-12-07T07:09:41;55.50;;;21.80;;
77026;SDS011;65956;52.986;17.490;2023-12-07T07:12:08;54.20;;;19.40;;
77026;SDS011;65956;52.986;17.490;2023-12-07T07:14:34;64.60;;;23.60;;
77026;SDS011;65956;52.986;17.490;2023-12-07T07:17:00;59.90;;;21.60;;
77026;SDS011;65956;52.986;17.490;2023-12-07T07:19:26;60.30;;;21.30;;
77026;SDS011;65956;52.986;17.490;2023-12-07T07:21:52;60.50;;;23.20;;
77026;SDS011;65956;52.986;17.490;2023-12-07T07:24:18;57.80;;;23.10;;
77026;SDS011;65956;52.986;17.490;2023-12-07T07:26:44;64.80;;;23.50;;
77026;SDS011;65956;52.986;17.490;2023-12-07T07:29:10;60.70;;;23.60;;
77026;SDS011;65956;52.986;17.490;2023-12-07T07:31:36;56.60;;;21.80;;
77026;SDS011;65956;52.986;17.490;2023-12-07T07:34:02;58.10;;;22.60;;
77026;SDS011;65956;52.986;17.490;2023-12-07T07:36:28;64.70;;;23.20;;
77026;SDS011;65956;52.986;17.490;2023-12-07T07:38:54;62.80;;;23.10;;
77026;SDS011;65956;52.986;17.490;2023-12-07T07:41:21;66.70;;;24.30;;
77026;SDS011;65956;52.986;17.490;2023-12-07T07:43:47;62.20;;;23.10;;
77026;SDS011;65956;52.986;17.490;2023-12-07T07:46:13;64.80;;;25.60;;
77026;SDS011;65956;52.986;17.490;2023-12-07T07:48:40;72.90;;;25.90;;
77026;SDS011;65956;52.986;17.490;2023-12-07T07:51:06;49.20;;;18.00;;
77026;SDS011;65956;52.986;17.490;2023-12-07T07:53:32;70.30;;;25.40;;
77026;SDS011;65956;52.986;17.490;2023-12-07T07:55:58;62.40;;;24.20;;
77026;SDS011;65956;52.986;17.490;2023-12-07T07:58:24;69.10;;;26.00;;
77026;SDS011;65956;52.986;17.490;2023-12-07T08:00:50;64.40;;;25.40;;
77026;SDS011;65956;52.986;17.490;2023-12-07T08:03:17;69.60;;;28.20;;
77026;SDS011;65956;52.986;17.490;2023-12-07T08:05:44;69.70;;;26.30;;
77026;SDS011;65956;52.986;17.490;2023-12-07T08:08:10;71.70;;;26.20;;
77026;SDS011;65956;52.986;17.490;2023-12-07T08:10:37;62.60;;;25.10;;
77026;SDS011;65956;52.986;17.490;2023-12-07T08:13:04;61.80;;;24.50;;
77026;SDS011;65956;52.986;17.490;2023-12-07T08:15:34;61.70;;;24.00;;
77026;SDS011;65956;52.986;17.490;2023-12-07T08:18:00;69.40;;;26.30;;
77026;SDS011;65956;52.986;17.490;2023-12-07T08:20:27;71.90;;;25.90;;
77026;SDS011;65956;52.986;17.490;2023-12-07T08:22:53;68.70;;;25.20;;
77026;SDS011;65956;52.986;17.490;2023-12-07T08:25:20;77.10;;;28.30;;
77026;SDS011;65956;52.986;17.490;2023-12-07T08:27:47;71.50;;;28.70;;
77026;SDS011;65956;52.986;17.490;2023-12-07T08:30:13;66.80;;;27.00;;
77026;SDS011;65956;52.986;17.490;2023-12-07T08:32:39;62.70;;;25.10;;
77026;SDS011;65956;52.986;17.490;2023-12-07T08:35:05;58.90;;;24.10;;
77026;SDS011;65956;52.986;17.490;2023-12-07T08:37:32;63.00;;;26.80;;
77026;SDS011;65956;52.986;17.490;2023-12-07T08:39:58;68.00;;;27.20;;
77026;SDS011;65956;52.986;17.490;2023-12-07T08:42:25;68.60;;;28.50;;
77026;SDS011;65956;52.986;17.490;2023-12-07T08:44:52;67.00;;;29.70;;
77026;SDS011;65956;52.986;17.490;2023-12-07T08:47:19;64.20;;;26.90;;
77026;SDS011;65956;52.986;17.490;2023-12-07T08:49:45;66.90;;;26.20;;
77026;SDS011;65956;52.986;17.490;2023-12-07T08:52:11;63.60;;;24.10;;
77026;SDS011;65956;52.986;17.490;2023-12-07T08:54:37;65.00;;;25.40;;
77026;SDS011;65956;52.986;17.490;2023-12-07T08:57:03;62.20;;;24.50;;
77026;SDS011;65956;52.986;17.490;2023-12-07T08:59:29;55.40;;;22.90;;
77026;SDS011;65956;52.986;17.490;2023-12-07T09:01:56;57.80;;;26.30;;
77026;SDS011;65956;52.986;17.490;2023-12-07T09:04:22;97.00;;;36.50;;
77026;SDS011;65956;52.986;17.490;2023-12-07T09:06:48;66.00;;;26.70;;
77026;SDS011;65956;52.986;17.490;2023-12-07T09:09:14;67.70;;;27.50;;
77026;SDS011;65956;52.986;17.490;2023-12-07T09:11:41;60.50;;;23.30;;
77026;SDS011;65956;52.986;17.490;2023-12-07T09:14:07;59.80;;;25.20;;
77026;SDS011;65956;52.986;17.490;2023-12-07T09:16:33;55.60;;;23.20;;
77026;SDS011;65956;52.986;17.490;2023-12-07T09:19:00;59.40;;;24.00;;
77026;SDS011;65956;52.986;17.490;2023-12-07T09:21:27;61.40;;;28.40;;
77026;SDS011;65956;52.986;17.490;2023-12-07T09:23:53;66.40;;;28.90;;
77026;SDS011;65956;52.986;17.490;2023-12-07T09:26:19;62.90;;;26.10;;
77026;SDS011;65956;52.986;17.490;2023-12-07T09:28:46;61.50;;;26.20;;
77026;SDS011;65956;52.986;17.490;2023-12-07T09:31:12;58.40;;;24.40;;
77026;SDS011;65956;52.986;17.490;2023-12-07T09:33:38;58.10;;;26.80;;
77026;SDS011;65956;52.986;17.490;2023-12-07T09:36:04;71.30;;;29.50;;
77026;SDS011;65956;52.986;17.490;2023-12-07T09:38:37;61.90;;;26.10;;
77026;SDS011;65956;52.986;17.490;2023-12-07T09:41:03;56.30;;;25.80;;
77026;SDS011;65956;52.986;17.490;2023-12-07T09:43:29;58.80;;;24.70;;
77026;SDS011;65956;52.986;17.490;2023-12-07T09:45:55;71.10;;;33.40;;
77026;SDS011;65956;52.986;17.490;2023-12-07T09:48:23;61.20;;;25.50;;
77026;SDS011;65956;52.986;17.490;2023-12-07T09:50:49;55.70;;;23.30;;
77026;SDS011;65956;52.986;17.490;2023-12-07T09:53:18;57.30;;;22.80;;
77026;SDS011;65956;52.986;17.490;2023-12-07T09:55:44;61.70;;;27.10;;
77026;SDS011;65956;52.986;17.490;2023-12-07T09:58:12;60.00;;;26.30;;
77026;SDS011;65956;52.986;17.490;2023-12-07T10:00:38;51.00;;;21.00;;
77026;SDS011;65956;52.986;17.490;2023-12-07T10:03:05;64.10;;;30.60;;
77026;SDS011;65956;52.986;17.490;2023-12-07T10:05:51;60.70;;;30.30;;
77026;SDS011;65956;52.986;17.490;2023-12-07T10:08:26;58.40;;;24.90;;
77026;SDS011;65956;52.986;17.490;2023-12-07T10:11:07;52.40;;;22.60;;
77026;SDS011;65956;52.986;17.490;2023-12-07T10:13:34;57.70;;;25.20;;
77026;SDS011;65956;52.986;17.490;2023-12-07T10:16:08;59.50;;;24.30;;
77026;SDS011;65956;52.986;17.490;2023-12-07T10:18:38;57.60;;;24.40;;
77026;SDS011;65956;52.986;17.490;2023-12-07T10:21:09;57.60;;;23.70;;
77026;SDS011;65956;52.986;17.490;2023-12-07T10:23:38;55.90;;;23.60;;
77026;SDS011;65956;52.986;17.490;2023-12-07T10:26:06;61.50;;;25.60;;
77026;SDS011;65956;52.986;17.490;2023-12-07T10:28:35;58.80;;;24.20;;
77026;SDS011;65956;52.986;17.490;2023-12-07T10:31:02;68.30;;;26.20;;
77026;SDS011;65956;52.986;17.490;2023-12-07T10:33:29;68.80;;;29.40;;
77026;SDS011;65956;52.986;17.490;2023-12-07T10:35:55;60.10;;;24.40;;
77026;SDS011;65956;52.986;17.490;2023-12-07T10:38:21;55.80;;;23.70;;
77026;SDS011;65956;52.986;17.490;2023-12-07T10:40:47;58.80;;;24.50;;
77026;SDS011;65956;52.986;17.490;2023-12-07T10:43:16;59.00;;;24.80;;
77026;SDS011;65956;52.986;17.490;2023-12-07T10:45:46;59.90;;;25.00;;
77026;SDS011;65956;52.986;17.490;2023-12-07T10:48:12;66.50;;;29.20;;
77026;SDS011;65956;52.986;17.490;2023-12-07T10:50:41;63.40;;;27.00;;
77026;SDS011;65956;52.986;17.490;2023-12-07T10:53:17;62.80;;;26.10;;
77026;SDS011;65956;52.986;17.490;2023-12-07T10:55:52;57.00;;;24.70;;
77026;SDS011;65956;52.986;17.490;2023-12-07T10:58:24;58.50;;;23.10;;
77026;SDS011;65956;52.986;17.490;2023-12-07T11:00:52;58.40;;;25.80;;
77026;SDS011;65956;52.986;17.490;2023-12-07T11:03:18;53.00;;;23.20;;
77026;SDS011;65956;52.986;17.490;2023-12-07T11:05:49;60.70;;;25.40;;
77026;SDS011;65956;52.986;17.490;2023-12-07T11:08:19;61.00;;;25.60;;
77026;SDS011;65956;52.986;17.490;2023-12-07T11:13:36;74.50;;;32.80;;
77026;SDS011;65956;52.986;17.490;2023-12-07T11:16:03;82.40;;;33.60;;
77026;SDS011;65956;52.986;17.490;2023-12-07T11:18:30;69.90;;;29.50;;
77026;SDS011;65956;52.986;17.490;2023-12-07T11:20:56;59.10;;;25.20;;
77026;SDS011;65956;52.986;17.490;2023-12-07T11:23:25;54.90;;;22.90;;
77026;SDS011;65956;52.986;17.490;2023-12-07T11:25:53;59.40;;;25.00;;
77026;SDS011;65956;52.986;17.490;2023-12-07T11:28:35;55.80;;;26.00;;
77026;SDS011;65956;52.986;17.490;2023-12-07T11:31:05;61.40;;;27.00;;
77026;SDS011;65956;52.986;17.490;2023-12-07T11:33:33;60.70;;;25.30;;
77026;SDS011;65956;52.986;17.490;2023-12-07T11:38:28;62.90;;;26.60;;
77026;SDS011;65956;52.986;17.490;2023-12-07T11:40:55;61.90;;;26.80;;
77026;SDS011;65956;52.986;17.490;2023-12-07T11:46:06;61.20;;;26.30;;
77026;SDS011;65956;52.986;17.490;2023-12-07T11:48:33;56.00;;;24.00;;
77026;SDS011;65956;52.986;17.490;2023-12-07T11:51:00;58.70;;;25.20;;
77026;SDS011;65956;52.986;17.490;2023-12-07T11:53:30;59.70;;;26.40;;
77026;SDS011;65956;52.986;17.490;2023-12-07T11:55:59;62.50;;;26.10;;
77026;SDS011;65956;52.986;17.490;2023-12-07T11:58:26;60.20;;;25.70;;
77026;SDS011;65956;52.986;17.490;2023-12-07T12:00:53;62.10;;;27.40;;
77026;SDS011;65956;52.986;17.490;2023-12-07T12:03:25;57.20;;;24.00;;
77026;SDS011;65956;52.986;17.490;2023-12-07T12:05:52;57.60;;;24.60;;
77026;SDS011;65956;52.986;17.490;2023-12-07T12:08:20;52.90;;;24.00;;
77026;SDS011;65956;52.986;17.490;2023-12-07T12:10:47;57.70;;;25.40;;
77026;SDS011;65956;52.986;17.490;2023-12-07T12:13:16;55.20;;;24.40;;
77026;SDS011;65956;52.986;17.490;2023-12-07T12:15:42;53.40;;;22.40;;
77026;SDS011;65956;52.986;17.490;2023-12-07T12:18:08;56.70;;;24.50;;
77026;SDS011;65956;52.986;17.490;2023-12-07T12:20:35;58.30;;;25.60;;
77026;SDS011;65956;52.986;17.490;2023-12-07T12:23:01;59.60;;;24.90;;
77026;SDS011;65956;52.986;17.490;2023-12-07T12:25:28;62.30;;;28.30;;
77026;SDS011;65956;52.986;17.490;2023-12-07T12:27:56;59.80;;;25.80;;
77026;SDS011;65956;52.986;17.490;2023-12-07T12:30:26;60.40;;;26.00;;
77026;SDS011;65956;52.986;17.490;2023-12-07T12:32:53;64.50;;;28.70;;
77026;SDS011;65956;52.986;17.490;2023-12-07T12:35:21;66.80;;;29.30;;
77026;SDS011;65956;52.986;17.490;2023-12-07T12:37:48;65.70;;;28.40;;
77026;SDS011;65956;52.986;17.490;2023-12-07T12:40:16;72.50;;;31.60;;
77026;SDS011;65956;52.986;17.490;2023-12-07T12:42:50;66.00;;;30.20;;
77026;SDS011;65956;52.986;17.490;2023-12-07T12:45:18;66.50;;;28.70;;
77026;SDS011;65956;52.986;17.490;2023-12-07T12:47:45;66.70;;;28.60;;
77026;SDS011;65956;52.986;17.490;2023-12-07T12:50:32;66.90;;;27.50;;
77026;SDS011;65956;52.986;17.490;2023-12-07T12:52:58;67.00;;;27.50;;
77026;SDS011;65956;52.986;17.490;2023-12-07T12:55:26;63.50;;;25.50;;
77026;SDS011;65956;52.986;17.490;2023-12-07T12:57:52;55.50;;;24.60;;
77026;SDS011;65956;52.986;17.490;2023-12-07T13:00:18;67.30;;;28.30;;
77026;SDS011;65956;52.986;17.490;2023-12-07T13:02:45;68.00;;;29.80;;
77026;SDS011;65956;52.986;17.490;2023-12-07T13:05:11;63.50;;;27.90;;
77026;SDS011;65956;52.986;17.490;2023-12-07T13:07:38;65.30;;;26.40;;
77026;SDS011;65956;52.986;17.490;2023-12-07T13:10:04;66.80;;;28.00;;
77026;SDS011;65956;52.986;17.490;2023-12-07T13:12:34;68.40;;;27.50;;
77026;SDS011;65956;52.986;17.490;2023-12-07T13:15:01;65.60;;;29.10;;
77026;SDS011;65956;52.986;17.490;2023-12-07T13:17:27;70.70;;;31.00;;
77026;SDS011;65956;52.986;17.490;2023-12-07T13:19:53;71.00;;;29.60;;
77026;SDS011;65956;52.986;17.490;2023-12-07T13:22:20;77.20;;;30.30;;
77026;SDS011;65956;52.986;17.490;2023-12-07T13:24:48;69.90;;;29.00;;
77026;SDS011;65956;52.986;17.490;2023-12-07T13:27:17;70.10;;;30.80;;
77026;SDS011;65956;52.986;17.490;2023-12-07T13:29:43;76.60;;;35.10;;
77026;SDS011;65956;52.986;17.490;2023-12-07T13:32:09;65.00;;;28.30;;
77026;SDS011;65956;52.986;17.490;2023-12-07T13:34:36;68.60;;;28.50;;
77026;SDS011;65956;52.986;17.490;2023-12-07T13:37:04;68.50;;;30.40;;
77026;SDS011;65956;52.986;17.490;2023-12-07T13:39:32;71.50;;;30.40;;
77026;SDS011;65956;52.986;17.490;2023-12-07T13:42:06;71.10;;;30.40;;
77026;SDS011;65956;52.986;17.490;2023-12-07T13:44:35;71.90;;;28.40;;
77026;SDS011;65956;52.986;17.490;2023-12-07T13:47:05;73.60;;;31.00;;
77026;SDS011;65956;52.986;17.490;2023-12-07T13:49:34;83.80;;;36.80;;
77026;SDS011;65956;52.986;17.490;2023-12-07T13:52:03;95.30;;;45.20;;
77026;SDS011;65956;52.986;17.490;2023-12-07T13:54:36;95.30;;;42.70;;
77026;SDS011;65956;52.986;17.490;2023-12-07T13:57:02;86.40;;;39.00;;
77026;SDS011;65956;52.986;17.490;2023-12-07T13:59:29;71.10;;;31.10;;
77026;SDS011;65956;52.986;17.490;2023-12-07T14:01:55;80.00;;;31.40;;
77026;SDS011;65956;52.986;17.490;2023-12-07T14:04:21;72.80;;;30.80;;
77026;SDS011;65956;52.986;17.490;2023-12-07T14:06:47;69.80;;;30.00;;
77026;SDS011;65956;52.986;17.490;2023-12-07T14:09:13;73.30;;;32.30;;
77026;SDS011;65956;52.986;17.490;2023-12-07T14:11:39;73.70;;;31.20;;
77026;SDS011;65956;52.986;17.490;2023-12-07T14:14:05;90.80;;;34.80;;
77026;SDS011;65956;52.986;17.490;2023-12-07T14:16:31;86.90;;;34.00;;
77026;SDS011;65956;52.986;17.490;2023-12-07T14:18:57;100.10;;;38.10;;
77026;SDS011;65956;52.986;17.490;2023-12-07T14:21:23;109.90;;;45.80;;
77026;SDS011;65956;52.986;17.490;2023-12-07T14:23:50;139.30;;;55.40;;
77026;SDS011;65956;52.986;17.490;2023-12-07T14:26:19;152.30;;;56.10;;
77026;SDS011;65956;52.986;17.490;2023-12-07T14:28:45;132.00;;;53.20;;
77026;SDS011;65956;52.986;17.490;2023-12-07T14:31:12;131.50;;;52.80;;
77026;SDS011;65956;52.986;17.490;2023-12-07T14:33:43;124.40;;;50.00;;
77026;SDS011;65956;52.986;17.490;2023-12-07T14:36:10;171.40;;;54.60;;
77026;SDS011;65956;52.986;17.490;2023-12-07T14:38:38;254.00;;;81.90;;
77026;SDS011;65956;52.986;17.490;2023-12-07T14:41:04;170.80;;;61.20;;
77026;SDS011;65956;52.986;17.490;2023-12-07T14:43:30;179.30;;;63.50;;
77026;SDS011;65956;52.986;17.490;2023-12-07T14:45:56;89.20;;;34.80;;
77026;SDS011;65956;52.986;17.490;2023-12-07T14:48:22;90.60;;;35.30;;
77026;SDS011;65956;52.986;17.490;2023-12-07T14:50:49;87.00;;;37.70;;
77026;SDS011;65956;52.986;17.490;2023-12-07T14:53:15;142.30;;;48.60;;
77026;SDS011;65956;52.986;17.490;2023-12-07T14:55:41;136.40;;;49.70;;
77026;SDS011;65956;52.986;17.490;2023-12-07T14:58:07;157.60;;;51.30;;
77026;SDS011;65956;52.986;17.490;2023-12-07T15:00:33;145.30;;;51.10;;
77026;SDS011;65956;52.986;17.490;2023-12-07T15:02:59;115.30;;;41.80;;
77026;SDS011;65956;52.986;17.490;2023-12-07T15:05:25;117.00;;;40.80;;
77026;SDS011;65956;52.986;17.490;2023-12-07T15:07:51;154.00;;;53.50;;
77026;SDS011;65956;52.986;17.490;2023-12-07T15:10:17;165.90;;;58.10;;
77026;SDS011;65956;52.986;17.490;2023-12-07T15:12:44;104.60;;;41.80;;
77026;SDS011;65956;52.986;17.490;2023-12-07T15:15:10;90.00;;;35.70;;
77026;SDS011;65956;52.986;17.490;2023-12-07T15:17:36;83.30;;;33.10;;
77026;SDS011;65956;52.986;17.490;2023-12-07T15:20:02;89.50;;;34.60;;
77026;SDS011;65956;52.986;17.490;2023-12-07T15:22:29;101.50;;;39.60;;
77026;SDS011;65956;52.986;17.490;2023-12-07T15:24:55;84.50;;;34.40;;
77026;SDS011;65956;52.986;17.490;2023-12-07T15:27:21;90.80;;;37.60;;
77026;SDS011;65956;52.986;17.490;2023-12-07T15:29:47;206.20;;;94.60;;
77026;SDS011;65956;52.986;17.490;2023-12-07T15:32:13;271.80;;;122.40;;
77026;SDS011;65956;52.986;17.490;2023-12-07T15:34:39;157.50;;;68.00;;
77026;SDS011;65956;52.986;17.490;2023-12-07T15:37:05;113.20;;;46.40;;
77026;SDS011;65956;52.986;17.490;2023-12-07T15:39:32;109.30;;;48.50;;
77026;SDS011;65956;52.986;17.490;2023-12-07T15:41:58;108.20;;;43.70;;
77026;SDS011;65956;52.986;17.490;2023-12-07T15:44:24;94.80;;;38.80;;
77026;SDS011;65956;52.986;17.490;2023-12-07T15:46:50;86.80;;;34.60;;
77026;SDS011;65956;52.986;17.490;2023-12-07T15:49:16;88.30;;;36.20;;
77026;SDS011;65956;52.986;17.490;2023-12-07T15:51:42;86.20;;;37.50;;
77026;SDS011;65956;52.986;17.490;2023-12-07T15:54:08;84.60;;;34.00;;
77026;SDS011;65956;52.986;17.490;2023-12-07T15:56:39;80.40;;;33.30;;
77026;SDS011;65956;52.986;17.490;2023-12-07T15:59:06;84.90;;;33.70;;
77026;SDS011;65956;52.986;17.490;2023-12-07T16:01:32;83.10;;;35.20;;
77026;SDS011;65956;52.986;17.490;2023-12-07T16:03:58;80.00;;;32.90;;
77026;SDS011;65956;52.986;17.490;2023-12-07T16:06:24;76.90;;;31.70;;
77026;SDS011;65956;52.986;17.490;2023-12-07T16:08:50;80.90;;;31.90;;
77026;SDS011;65956;52.986;17.490;2023-12-07T16:11:16;76.70;;;31.90;;
77026;SDS011;65956;52.986;17.490;2023-12-07T16:13:42;81.40;;;33.20;;
77026;SDS011;65956;52.986;17.490;2023-12-07T16:16:15;73.40;;;31.40;;
77026;SDS011;65956;52.986;17.490;2023-12-07T16:29:47;85.70;;;31.40;;
77026;SDS011;65956;52.986;17.490;2023-12-07T16:32:13;91.50;;;34.00;;
77026;SDS011;65956;52.986;17.490;2023-12-07T16:34:40;80.20;;;31.40;;
77026;SDS011;65956;52.986;17.490;2023-12-07T16:37:06;81.10;;;30.90;;
77026;SDS011;65956;52.986;17.490;2023-12-07T16:39:33;79.40;;;30.90;;
77026;SDS011;65956;52.986;17.490;2023-12-07T16:41:59;83.10;;;31.90;;
77026;SDS011;65956;52.986;17.490;2023-12-07T16:44:25;87.60;;;33.70;;
77026;SDS011;65956;52.986;17.490;2023-12-07T16:46:52;79.30;;;32.40;;
77026;SDS011;65956;52.986;17.490;2023-12-07T16:49:18;91.40;;;35.70;;
77026;SDS011;65956;52.986;17.490;2023-12-07T16:51:44;90.60;;;34.80;;
77026;SDS011;65956;52.986;17.490;2023-12-07T16:54:10;85.80;;;33.90;;
77026;SDS011;65956;52.986;17.490;2023-12-07T16:56:36;86.30;;;34.20;;
77026;SDS011;65956;52.986;17.490;2023-12-07T16:59:02;82.30;;;33.50;;
77026;SDS011;65956;52.986;17.490;2023-12-07T17:01:28;85.80;;;34.70;;
77026;SDS011;65956;52.986;17.490;2023-12-07T17:03:54;89.50;;;37.70;;
77026;SDS011;65956;52.986;17.490;2023-12-07T17:06:20;91.70;;;35.20;;
77026;SDS011;65956;52.986;17.490;2023-12-07T17:08:46;82.60;;;35.00;;
77026;SDS011;65956;52.986;17.490;2023-12-07T17:11:12;86.40;;;34.80;;
77026;SDS011;65956;52.986;17.490;2023-12-07T17:13:39;86.20;;;35.50;;
77026;SDS011;65956;52.986;17.490;2023-12-07T17:16:05;84.00;;;33.70;;
77026;SDS011;65956;52.986;17.490;2023-12-07T17:18:34;90.80;;;34.30;;
77026;SDS011;65956;52.986;17.490;2023-12-07T17:21:01;82.80;;;33.60;;
77026;SDS011;65956;52.986;17.490;2023-12-07T17:23:28;78.30;;;30.00;;
77026;SDS011;65956;52.986;17.490;2023-12-07T17:25:54;76.30;;;31.20;;
77026;SDS011;65956;52.986;17.490;2023-12-07T17:28:20;80.50;;;31.60;;
77026;SDS011;65956;52.986;17.490;2023-12-07T17:30:46;81.40;;;32.30;;
77026;SDS011;65956;52.986;17.490;2023-12-07T17:33:12;80.20;;;32.40;;
77026;SDS011;65956;52.986;17.490;2023-12-07T17:35:38;80.00;;;31.70;;
77026;SDS011;65956;52.986;17.490;2023-12-07T17:38:04;79.10;;;32.10;;
77026;SDS011;65956;52.986;17.490;2023-12-07T17:40:31;81.30;;;32.50;;
77026;SDS011;65956;52.986;17.490;2023-12-07T17:42:57;77.20;;;32.10;;
77026;SDS011;65956;52.986;17.490;2023-12-07T17:45:23;79.10;;;32.20;;
77026;SDS011;65956;52.986;17.490;2023-12-07T17:47:49;89.30;;;33.10;;
77026;SDS011;65956;52.986;17.490;2023-12-07T17:50:15;86.20;;;33.20;;
77026;SDS011;65956;52.986;17.490;2023-12-07T17:52:41;88.60;;;33.20;;
77026;SDS011;65956;52.986;17.490;2023-12-07T17:55:07;84.50;;;34.40;;
77026;SDS011;65956;52.986;17.490;2023-12-07T17:57:33;84.60;;;32.50;;
77026;SDS011;65956;52.986;17.490;2023-12-07T17:59:59;89.90;;;32.80;;
77026;SDS011;65956;52.986;17.490;2023-12-07T18:02:25;86.20;;;33.00;;
77026;SDS011;65956;52.986;17.490;2023-12-07T18:04:51;88.00;;;34.60;;
77026;SDS011;65956;52.986;17.490;2023-12-07T18:07:17;81.00;;;32.60;;
77026;SDS011;65956;52.986;17.490;2023-12-07T18:09:43;81.80;;;33.50;;
77026;SDS011;65956;52.986;17.490;2023-12-07T18:12:09;83.00;;;31.70;;
77026;SDS011;65956;52.986;17.490;2023-12-07T18:14:35;83.00;;;32.50;;
77026;SDS011;65956;52.986;17.490;2023-12-07T18:17:01;89.10;;;33.60;;
77026;SDS011;65956;52.986;17.490;2023-12-07T18:19:28;80.70;;;32.00;;
77026;SDS011;65956;52.986;17.490;2023-12-07T18:21:54;89.20;;;32.90;;
77026;SDS011;65956;52.986;17.490;2023-12-07T18:24:20;95.70;;;35.40;;
77026;SDS011;65956;52.986;17.490;2023-12-07T18:26:46;95.50;;;35.40;;
77026;SDS011;65956;52.986;17.490;2023-12-07T18:29:12;93.40;;;34.30;;
77026;SDS011;65956;52.986;17.490;2023-12-07T18:31:38;95.50;;;38.50;;
77026;SDS011;65956;52.986;17.490;2023-12-07T18:34:04;95.80;;;33.50;;
77026;SDS011;65956;52.986;17.490;2023-12-07T18:36:30;92.80;;;34.50;;
77026;SDS011;65956;52.986;17.490;2023-12-07T18:38:56;105.50;;;37.00;;
77026;SDS011;65956;52.986;17.490;2023-12-07T18:41:22;110.30;;;40.10;;
77026;SDS011;65956;52.986;17.490;2023-12-07T18:43:48;105.80;;;39.50;;
77026;SDS011;65956;52.986;17.490;2023-12-07T18:46:14;102.00;;;38.70;;
77026;SDS011;65956;52.986;17.490;2023-12-07T18:48:42;84.50;;;32.50;;
77026;SDS011;65956;52.986;17.490;2023-12-07T18:51:08;81.00;;;30.80;;
77026;SDS011;65956;52.986;17.490;2023-12-07T18:53:34;90.90;;;33.80;;
77026;SDS011;65956;52.986;17.490;2023-12-07T18:56:00;83.00;;;31.60;;
77026;SDS011;65956;52.986;17.490;2023-12-07T18:58:26;80.60;;;29.80;;
77026;SDS011;65956;52.986;17.490;2023-12-07T19:00:52;86.10;;;31.80;;
77026;SDS011;65956;52.986;17.490;2023-12-07T19:03:19;87.80;;;32.40;;
77026;SDS011;65956;52.986;17.490;2023-12-07T19:05:45;78.40;;;30.50;;
77026;SDS011;65956;52.986;17.490;2023-12-07T19:08:12;83.10;;;32.80;;
77026;SDS011;65956;52.986;17.490;2023-12-07T19:10:38;81.80;;;30.70;;
77026;SDS011;65956;52.986;17.490;2023-12-07T19:13:07;77.60;;;29.50;;
77026;SDS011;65956;52.986;17.490;2023-12-07T19:15:33;75.80;;;28.80;;
77026;SDS011;65956;52.986;17.490;2023-12-07T19:17:59;79.50;;;28.50;;
77026;SDS011;65956;52.986;17.490;2023-12-07T19:20:25;77.90;;;28.80;;
77026;SDS011;65956;52.986;17.490;2023-12-07T19:22:51;84.30;;;31.20;;
77026;SDS011;65956;52.986;17.490;2023-12-07T19:25:18;81.00;;;31.20;;
77026;SDS011;65956;52.986;17.490;2023-12-07T19:27:45;89.80;;;32.20;;
77026;SDS011;65956;52.986;17.490;2023-12-07T19:30:13;110.00;;;36.40;;
77026;SDS011;65956;52.986;17.490;2023-12-07T19:32:39;159.50;;;50.00;;
77026;SDS011;65956;52.986;17.490;2023-12-07T19:35:05;174.80;;;54.70;;
77026;SDS011;65956;52.986;17.490;2023-12-07T19:37:31;115.80;;;43.10;;
77026;SDS011;65956;52.986;17.490;2023-12-07T19:40:02;105.10;;;40.70;;
77026;SDS011;65956;52.986;17.490;2023-12-07T19:42:28;143.10;;;49.70;;
77026;SDS011;65956;52.986;17.490;2023-12-07T19:44:54;183.60;;;67.90;;
77026;SDS011;65956;52.986;17.490;2023-12-07T19:47:20;162.00;;;59.20;;
77026;SDS011;65956;52.986;17.490;2023-12-07T19:49:46;107.90;;;41.20;;
77026;SDS011;65956;52.986;17.490;2023-12-07T19:52:12;108.10;;;38.60;;
77026;SDS011;65956;52.986;17.490;2023-12-07T19:54:39;90.70;;;33.60;;
77026;SDS011;65956;52.986;17.490;2023-12-07T19:57:06;83.60;;;32.40;;
77026;SDS011;65956;52.986;17.490;2023-12-07T19:59:32;91.60;;;32.50;;
77026;SDS011;65956;52.986;17.490;2023-12-07T20:01:58;83.00;;;29.50;;
77026;SDS011;65956;52.986;17.490;2023-12-07T20:04:24;98.40;;;33.10;;
77026;SDS011;65956;52.986;17.490;2023-12-07T20:06:50;120.80;;;43.50;;
77026;SDS011;65956;52.986;17.490;2023-12-07T20:09:17;106.20;;;38.30;;
77026;SDS011;65956;52.986;17.490;2023-12-07T20:11:43;92.90;;;34.40;;
77026;SDS011;65956;52.986;17.490;2023-12-07T20:14:09;87.20;;;35.00;;
77026;SDS011;65956;52.986;17.490;2023-12-07T20:16:36;86.10;;;31.90;;
77026;SDS011;65956;52.986;17.490;2023-12-07T20:19:02;91.70;;;35.90;;